sensor_id;sensor_type;location;lat;lon;timestamp;pressure;altitude;pressure_sealevel;temperature;humidity
17785;BME280;9016;53.582;10.062;2023-04-24T00:02:11;99915.25;;;15.35;78.11
17785;BME280;9016;53.582;10.062;2023-04-24T00:04:40;99920.34;;;15.28;78.28
17785;BME280;9016;53.582;10.062;2023-04-24T00:07:11;99918.06;;;15.24;78.79
17785;BME280;9016;53.582;10.062;2023-04-24T00:09:41;99909.47;;;15.30;79.22
17785;BME280;9016;53.582;10.062;2023-04-24T00:12:09;99908.75;;;15.28;79.46
17785;BME280;9016;53.582;10.062;2023-04-24T00:14:37;99897.31;;;15.26;79.71
17785;BME280;9016;53.582;10.062;2023-04-24T00:17:05;99894.63;;;15.26;79.88
17785;BME280;9016;53.582;10.062;2023-04-24T00:19:34;99896.34;;;15.27;79.77
17785;BME280;9016;53.582;10.062;2023-04-24T00:22:02;99887.56;;;15.25;79.87
17785;BME280;9016;53.582;10.062;2023-04-24T00:24:30;99879.06;;;15.29;79.28
17785;BME280;9016;53.582;10.062;2023-04-24T00:27:00;99878.09;;;15.30;79.59
17785;BME280;9016;53.582;10.062;2023-04-24T00:29:29;99871.47;;;15.34;78.99
17785;BME280;9016;53.582;10.062;2023-04-24T00:31:57;99872.75;;;15.30;79.07
17785;BME280;9016;53.582;10.062;2023-04-24T00:34:25;99864.84;;;15.29;79.26
17785;BME280;9016;53.582;10.062;2023-04-24T00:36:53;99877.09;;;15.22;79.50
17785;BME280;9016;53.582;10.062;2023-04-24T00:39:21;99867.78;;;15.16;79.61
17785;BME280;9016;53.582;10.062;2023-04-24T00:41:50;99868.66;;;15.17;80.46
17785;BME280;9016;53.582;10.062;2023-04-24T00:44:20;99867.78;;;15.16;79.81
17785;BME280;9016;53.582;10.062;2023-04-24T00:46:49;99861.31;;;15.09;80.39
17785;BME280;9016;53.582;10.062;2023-04-24T00:49:21;99860.75;;;15.06;80.20
17785;BME280;9016;53.582;10.062;2023-04-24T00:51:50;99858.78;;;14.98;80.34
17785;BME280;9016;53.582;10.062;2023-04-24T00:54:18;99864.56;;;14.94;80.71
17785;BME280;9016;53.582;10.062;2023-04-24T00:56:46;99867.81;;;14.87;80.66
17785;BME280;9016;53.582;10.062;2023-04-24T00:59:16;99864.28;;;14.87;80.91
17785;BME280;9016;53.582;10.062;2023-04-24T01:01:45;99866.81;;;14.88;80.50
17785;BME280;9016;53.582;10.062;2023-04-24T01:04:14;99868.38;;;14.81;81.06
17785;BME280;9016;53.582;10.062;2023-04-24T01:06:45;99867.53;;;14.81;81.13
17785;BME280;9016;53.582;10.062;2023-04-24T01:09:14;99876.25;;;14.83;81.01
17785;BME280;9016;53.582;10.062;2023-04-24T01:11:42;99868.38;;;14.81;80.60
17785;BME280;9016;53.582;10.062;2023-04-24T01:14:11;99868.94;;;14.75;81.27
17785;BME280;9016;53.582;10.062;2023-04-24T01:16:39;99867.66;;;14.79;81.24
17785;BME280;9016;53.582;10.062;2023-04-24T01:19:10;99866.13;;;14.77;81.57
17785;BME280;9016;53.582;10.062;2023-04-24T01:21:39;99871.34;;;14.78;80.86
17785;BME280;9016;53.582;10.062;2023-04-24T01:24:08;99872.59;;;14.74;80.92
17785;BME280;9016;53.582;10.062;2023-04-24T01:26:36;99864.84;;;14.71;80.88
17785;BME280;9016;53.582;10.062;2023-04-24T01:29:04;99854.53;;;14.67;80.58
17785;BME280;9016;53.582;10.062;2023-04-24T01:31:34;99858.22;;;14.66;80.94
17785;BME280;9016;53.582;10.062;2023-04-24T01:34:02;99858.47;;;14.63;81.12
17785;BME280;9016;53.582;10.062;2023-04-24T01:36:31;99853.25;;;14.61;80.67
17785;BME280;9016;53.582;10.062;2023-04-24T01:39:01;99860.31;;;14.62;81.11
17785;BME280;9016;53.582;10.062;2023-04-24T01:41:32;99859.34;;;14.73;80.85
17785;BME280;9016;53.582;10.062;2023-04-24T01:44:00;99851.59;;;14.70;80.63
17785;BME280;9016;53.582;10.062;2023-04-24T01:46:28;99856.50;;;14.74;80.31
17785;BME280;9016;53.582;10.062;2023-04-24T01:48:59;99850.28;;;14.74;80.45
17785;BME280;9016;53.582;10.062;2023-04-24T01:51:28;99854.53;;;14.76;79.94
17785;BME280;9016;53.582;10.062;2023-04-24T01:53:56;99841.53;;;14.72;80.41
17785;BME280;9016;53.582;10.062;2023-04-24T01:56:25;99837.47;;;14.68;80.06
17785;BME280;9016;53.582;10.062;2023-04-24T01:58:58;99837.56;;;14.66;79.61
17785;BME280;9016;53.582;10.062;2023-04-24T02:01:27;99835.31;;;14.52;80.23
17785;BME280;9016;53.582;10.062;2023-04-24T02:04:00;99835.88;;;14.46;80.47
17785;BME280;9016;53.582;10.062;2023-04-24T02:06:28;99835.88;;;14.46;80.20
17785;BME280;9016;53.582;10.062;2023-04-24T02:08:57;99833.75;;;14.40;79.69
17785;BME280;9016;53.582;10.062;2023-04-24T02:11:25;99825.44;;;14.43;79.94
17785;BME280;9016;53.582;10.062;2023-04-24T02:13:53;99828.41;;;14.40;79.29
17785;BME280;9016;53.582;10.062;2023-04-24T02:16:23;99826.69;;;14.39;79.70
17785;BME280;9016;53.582;10.062;2023-04-24T02:18:51;99825.59;;;14.42;79.30
17785;BME280;9016;53.582;10.062;2023-04-24T02:21:19;99833.31;;;14.35;79.70
17785;BME280;9016;53.582;10.062;2023-04-24T02:23:47;99829.66;;;14.36;79.29
17785;BME280;9016;53.582;10.062;2023-04-24T02:26:15;99829.25;;;14.31;79.86
17785;BME280;9016;53.582;10.062;2023-04-24T02:28:44;99835.00;;;14.27;80.45
17785;BME280;9016;53.582;10.062;2023-04-24T02:31:12;99835.00;;;14.27;80.25
17785;BME280;9016;53.582;10.062;2023-04-24T02:33:41;99838.66;;;14.26;80.77
17785;BME280;9016;53.582;10.062;2023-04-24T02:36:09;99842.00;;;14.18;80.95
17785;BME280;9016;53.582;10.062;2023-04-24T02:38:37;99829.84;;;14.14;81.52
17785;BME280;9016;53.582;10.062;2023-04-24T02:41:05;99834.66;;;14.11;81.27
17785;BME280;9016;53.582;10.062;2023-04-24T02:43:33;99828.00;;;14.05;81.97
17785;BME280;9016;53.582;10.062;2023-04-24T02:46:01;99830.81;;;14.04;81.52
17785;BME280;9016;53.582;10.062;2023-04-24T02:48:29;99831.41;;;14.07;81.44
17785;BME280;9016;53.582;10.062;2023-04-24T02:50:59;99824.75;;;14.02;81.69
17785;BME280;9016;53.582;10.062;2023-04-24T02:53:27;99825.56;;;13.93;81.14
17785;BME280;9016;53.582;10.062;2023-04-24T02:55:56;99823.84;;;13.91;81.29
17785;BME280;9016;53.582;10.062;2023-04-24T02:58:24;99819.94;;;13.96;81.36
17785;BME280;9016;53.582;10.062;2023-04-24T03:00:53;99826.69;;;13.90;80.86
17785;BME280;9016;53.582;10.062;2023-04-24T03:03:22;99831.72;;;13.83;81.47
17785;BME280;9016;53.582;10.062;2023-04-24T03:05:51;99826.34;;;13.74;80.64
17785;BME280;9016;53.582;10.062;2023-04-24T03:08:20;99817.03;;;13.78;81.76
17785;BME280;9016;53.582;10.062;2023-04-24T03:10:48;99816.06;;;13.79;81.02
17785;BME280;9016;53.582;10.062;2023-04-24T03:13:16;99814.78;;;13.73;81.03
17785;BME280;9016;53.582;10.062;2023-04-24T03:15:44;99818.41;;;13.72;80.89
17785;BME280;9016;53.582;10.062;2023-04-24T03:18:13;99818.41;;;13.72;80.13
17785;BME280;9016;53.582;10.062;2023-04-24T03:20:41;99816.16;;;13.68;80.30
17785;BME280;9016;53.582;10.062;2023-04-24T03:23:09;99815.53;;;13.55;80.80
17785;BME280;9016;53.582;10.062;2023-04-24T03:25:39;99811.75;;;13.57;80.35
17785;BME280;9016;53.582;10.062;2023-04-24T03:28:07;99817.22;;;13.56;79.69
17785;BME280;9016;53.582;10.062;2023-04-24T03:30:35;99820.75;;;13.56;78.37
17785;BME280;9016;53.582;10.062;2023-04-24T03:33:03;99814.94;;;13.51;78.53
17785;BME280;9016;53.582;10.062;2023-04-24T03:35:31;99815.91;;;13.41;77.90
17785;BME280;9016;53.582;10.062;2023-04-24T03:37:59;99816.91;;;13.49;78.54
17785;BME280;9016;53.582;10.062;2023-04-24T03:40:27;99822.78;;;13.43;77.57
17785;BME280;9016;53.582;10.062;2023-04-24T03:42:57;99818.81;;;13.38;77.57
17785;BME280;9016;53.582;10.062;2023-04-24T03:45:25;99821.94;;;13.43;77.40
17785;BME280;9016;53.582;10.062;2023-04-24T03:47:53;99819.16;;;13.44;76.80
17785;BME280;9016;53.582;10.062;2023-04-24T03:50:21;99826.31;;;13.44;76.82
17785;BME280;9016;53.582;10.062;2023-04-24T03:52:49;99830.81;;;13.43;76.81
17785;BME280;9016;53.582;10.062;2023-04-24T03:55:18;99825.47;;;13.43;76.27
17785;BME280;9016;53.582;10.062;2023-04-24T03:57:46;99831.81;;;13.42;76.16
17785;BME280;9016;53.582;10.062;2023-04-24T04:00:15;99817.72;;;13.40;76.29
17785;BME280;9016;53.582;10.062;2023-04-24T04:02:45;99823.50;;;13.45;76.40
17785;BME280;9016;53.582;10.062;2023-04-24T04:05:13;99819.81;;;13.37;75.80
17785;BME280;9016;53.582;10.062;2023-04-24T04:07:41;99817.34;;;13.24;74.82
17785;BME280;9016;53.582;10.062;2023-04-24T04:10:09;99814.66;;;13.24;74.90
17785;BME280;9016;53.582;10.062;2023-04-24T04:12:37;99803.84;;;13.26;74.52
17785;BME280;9016;53.582;10.062;2023-04-24T04:15:06;99817.44;;;13.23;73.21
17785;BME280;9016;53.582;10.062;2023-04-24T04:17:36;99818.81;;;13.17;73.87
17785;BME280;9016;53.582;10.062;2023-04-24T04:20:06;99816.81;;;13.10;74.48
17785;BME280;9016;53.582;10.062;2023-04-24T04:22:36;99816.69;;;13.11;73.51
17785;BME280;9016;53.582;10.062;2023-04-24T04:25:05;99812.66;;;13.17;73.62
17785;BME280;9016;53.582;10.062;2023-04-24T04:27:34;99817.44;;;13.23;72.94
17785;BME280;9016;53.582;10.062;2023-04-24T04:30:03;99816.44;;;13.14;72.27
17785;BME280;9016;53.582;10.062;2023-04-24T04:32:32;99816.94;;;13.08;71.97
17785;BME280;9016;53.582;10.062;2023-04-24T04:35:02;99827.63;;;13.08;70.66
17785;BME280;9016;53.582;10.062;2023-04-24T04:37:30;99823.88;;;13.11;70.75
17785;BME280;9016;53.582;10.062;2023-04-24T04:40:00;99836.50;;;13.09;69.93
17785;BME280;9016;53.582;10.062;2023-04-24T04:42:33;99837.50;;;13.08;69.35
17785;BME280;9016;53.582;10.062;2023-04-24T04:45:02;99831.47;;;13.15;69.57
17785;BME280;9016;53.582;10.062;2023-04-24T04:47:31;99840.81;;;13.21;68.76
17785;BME280;9016;53.582;10.062;2023-04-24T04:49:59;99844.63;;;13.18;68.99
17785;BME280;9016;53.582;10.062;2023-04-24T04:52:28;99843.81;;;13.27;68.10
17785;BME280;9016;53.582;10.062;2023-04-24T04:54:57;99833.84;;;13.29;67.21
17785;BME280;9016;53.582;10.062;2023-04-24T04:57:25;99835.31;;;13.43;66.96
17785;BME280;9016;53.582;10.062;2023-04-24T04:59:53;99839.28;;;13.48;66.93
17785;BME280;9016;53.582;10.062;2023-04-24T05:02:21;99832.31;;;13.57;66.66
17785;BME280;9016;53.582;10.062;2023-04-24T05:04:49;99832.59;;;13.63;66.86
17785;BME280;9016;53.582;10.062;2023-04-24T05:07:18;99839.25;;;13.69;65.64
17785;BME280;9016;53.582;10.062;2023-04-24T05:09:48;99836.78;;;13.77;65.96
17785;BME280;9016;53.582;10.062;2023-04-24T05:12:18;99832.69;;;13.82;65.66
17785;BME280;9016;53.582;10.062;2023-04-24T05:14:46;99827.63;;;13.79;65.43
17785;BME280;9016;53.582;10.062;2023-04-24T05:17:16;99833.19;;;13.67;64.77
17785;BME280;9016;53.582;10.062;2023-04-24T05:19:45;99830.88;;;13.53;65.06
17785;BME280;9016;53.582;10.062;2023-04-24T05:22:18;99830.44;;;13.48;64.96
17785;BME280;9016;53.582;10.062;2023-04-24T05:24:49;99823.19;;;13.39;65.95
17785;BME280;9016;53.582;10.062;2023-04-24T05:27:21;99825.78;;;13.50;65.87
17785;BME280;9016;53.582;10.062;2023-04-24T05:29:49;99830.06;;;13.62;65.74
17785;BME280;9016;53.582;10.062;2023-04-24T05:32:17;99835.16;;;13.65;65.37
17785;BME280;9016;53.582;10.062;2023-04-24T05:34:45;99832.03;;;13.60;65.25
17785;BME280;9016;53.582;10.062;2023-04-24T05:37:18;99836.34;;;13.72;65.50
17785;BME280;9016;53.582;10.062;2023-04-24T05:39:46;99831.88;;;13.61;65.09
17785;BME280;9016;53.582;10.062;2023-04-24T05:42:18;99836.72;;;13.67;65.28
17785;BME280;9016;53.582;10.062;2023-04-24T05:44:46;99838.53;;;13.67;65.28
17785;BME280;9016;53.582;10.062;2023-04-24T05:47:16;99840.91;;;13.60;65.75
17785;BME280;9016;53.582;10.062;2023-04-24T05:49:48;99834.03;;;13.67;65.46
17785;BME280;9016;53.582;10.062;2023-04-24T05:52:16;99822.38;;;13.78;65.22
17785;BME280;9016;53.582;10.062;2023-04-24T05:54:45;99832.75;;;13.62;64.42
17785;BME280;9016;53.582;10.062;2023-04-24T05:57:14;99841.31;;;13.86;64.50
17785;BME280;9016;53.582;10.062;2023-04-24T05:59:43;99840.69;;;13.73;64.45
17785;BME280;9016;53.582;10.062;2023-04-24T06:02:12;99845.00;;;13.85;63.93
17785;BME280;9016;53.582;10.062;2023-04-24T06:04:43;99837.25;;;13.91;64.02
17785;BME280;9016;53.582;10.062;2023-04-24T06:07:11;99838.53;;;13.97;63.93
17785;BME280;9016;53.582;10.062;2023-04-24T06:09:39;99848.97;;;14.00;63.18
17785;BME280;9016;53.582;10.062;2023-04-24T06:12:08;99841.66;;;14.02;63.11
17785;BME280;9016;53.582;10.062;2023-04-24T06:14:40;99839.28;;;14.09;62.85
17785;BME280;9016;53.582;10.062;2023-04-24T06:17:09;99836.34;;;14.21;63.19
17785;BME280;9016;53.582;10.062;2023-04-24T06:19:42;99843.75;;;14.29;62.95
17785;BME280;9016;53.582;10.062;2023-04-24T06:22:11;99842.50;;;14.33;62.90
17785;BME280;9016;53.582;10.062;2023-04-24T06:24:39;99845.81;;;14.25;61.94
17785;BME280;9016;53.582;10.062;2023-04-24T06:27:07;99841.94;;;14.29;61.37
17785;BME280;9016;53.582;10.062;2023-04-24T06:29:38;99852.53;;;14.40;61.83
17785;BME280;9016;53.582;10.062;2023-04-24T06:32:07;99846.31;;;14.40;60.21
17785;BME280;9016;53.582;10.062;2023-04-24T06:34:37;99845.44;;;14.39;60.10
17785;BME280;9016;53.582;10.062;2023-04-24T06:37:05;99848.00;;;14.31;60.29
17785;BME280;9016;53.582;10.062;2023-04-24T06:39:33;99846.03;;;14.43;61.17
17785;BME280;9016;53.582;10.062;2023-04-24T06:42:01;99855.09;;;14.51;60.43
17785;BME280;9016;53.582;10.062;2023-04-24T06:44:32;99856.47;;;14.55;60.02
17785;BME280;9016;53.582;10.062;2023-04-24T06:47:04;99858.19;;;14.56;59.74
17785;BME280;9016;53.582;10.062;2023-04-24T06:49:32;99852.97;;;14.74;59.88
17785;BME280;9016;53.582;10.062;2023-04-24T06:52:02;99851.16;;;14.84;58.90
17785;BME280;9016;53.582;10.062;2023-04-24T06:54:31;99843.41;;;14.81;57.74
17785;BME280;9016;53.582;10.062;2023-04-24T06:56:59;99854.38;;;15.16;57.49
17785;BME280;9016;53.582;10.062;2023-04-24T06:59:29;99852.56;;;16.19;53.80
17785;BME280;9016;53.582;10.062;2023-04-24T07:01:57;99845.75;;;16.87;52.96
17785;BME280;9016;53.582;10.062;2023-04-24T07:04:25;99846.94;;;19.12;48.34
17785;BME280;9016;53.582;10.062;2023-04-24T07:06:53;99840.09;;;19.96;44.77
17785;BME280;9016;53.582;10.062;2023-04-24T07:09:25;99832.59;;;20.22;43.22
17785;BME280;9016;53.582;10.062;2023-04-24T07:11:53;99848.81;;;20.22;43.43
17785;BME280;9016;53.582;10.062;2023-04-24T07:14:23;99844.88;;;19.78;44.58
17785;BME280;9016;53.582;10.062;2023-04-24T07:16:50;99844.38;;;19.74;44.53
17785;BME280;9016;53.582;10.062;2023-04-24T07:19:18;99845.09;;;18.96;45.92
17785;BME280;9016;53.582;10.062;2023-04-24T07:21:46;99855.88;;;19.68;43.86
17785;BME280;9016;53.582;10.062;2023-04-24T07:24:14;99855.00;;;18.88;44.51
17785;BME280;9016;53.582;10.062;2023-04-24T07:26:44;99853.88;;;19.14;44.79
17785;BME280;9016;53.582;10.062;2023-04-24T07:29:13;99854.25;;;18.45;46.63
17785;BME280;9016;53.582;10.062;2023-04-24T07:31:42;99853.63;;;18.67;47.01
17785;BME280;9016;53.582;10.062;2023-04-24T07:34:10;99861.16;;;19.38;45.38
17785;BME280;9016;53.582;10.062;2023-04-24T07:36:38;99849.66;;;19.36;45.72
17785;BME280;9016;53.582;10.062;2023-04-24T07:39:07;99865.09;;;20.06;42.58
17785;BME280;9016;53.582;10.062;2023-04-24T07:41:35;99865.81;;;19.76;43.74
17785;BME280;9016;53.582;10.062;2023-04-24T07:44:05;99864.06;;;21.15;41.41
17785;BME280;9016;53.582;10.062;2023-04-24T07:46:33;99863.09;;;21.08;40.54
17785;BME280;9016;53.582;10.062;2023-04-24T07:49:01;99883.78;;;20.32;41.67
17785;BME280;9016;53.582;10.062;2023-04-24T07:51:39;99878.19;;;19.30;43.54
17785;BME280;9016;53.582;10.062;2023-04-24T07:54:08;99871.59;;;19.09;43.21
17785;BME280;9016;53.582;10.062;2023-04-24T07:56:36;99876.13;;;18.92;44.59
17785;BME280;9016;53.582;10.062;2023-04-24T07:59:07;99878.69;;;19.58;44.29
17785;BME280;9016;53.582;10.062;2023-04-24T08:01:36;99880.53;;;19.25;43.89
17785;BME280;9016;53.582;10.062;2023-04-24T08:04:05;99884.78;;;20.31;41.68
17785;BME280;9016;53.582;10.062;2023-04-24T08:06:33;99876.13;;;20.74;40.72
17785;BME280;9016;53.582;10.062;2023-04-24T08:09:01;99878.66;;;19.82;41.86
17785;BME280;9016;53.582;10.062;2023-04-24T08:11:30;99880.34;;;19.03;43.54
17785;BME280;9016;53.582;10.062;2023-04-24T08:13:58;99885.94;;;18.43;44.82
17785;BME280;9016;53.582;10.062;2023-04-24T08:16:27;99889.81;;;17.82;46.20
17785;BME280;9016;53.582;10.062;2023-04-24T08:18:55;99893.59;;;17.71;46.96
17785;BME280;9016;53.582;10.062;2023-04-24T08:21:23;99908.66;;;17.56;47.17
17785;BME280;9016;53.582;10.062;2023-04-24T08:23:53;99902.41;;;17.03;48.17
17785;BME280;9016;53.582;10.062;2023-04-24T08:26:20;99906.69;;;16.60;49.42
17785;BME280;9016;53.582;10.062;2023-04-24T08:28:48;99903.25;;;16.68;49.17
17785;BME280;9016;53.582;10.062;2023-04-24T08:31:17;99902.22;;;16.42;49.71
17785;BME280;9016;53.582;10.062;2023-04-24T08:33:46;99905.72;;;16.25;49.95
17785;BME280;9016;53.582;10.062;2023-04-24T08:36:14;99924.66;;;16.23;49.74
17785;BME280;9016;53.582;10.062;2023-04-24T08:38:42;99921.69;;;16.26;50.05
17785;BME280;9016;53.582;10.062;2023-04-24T08:41:10;99919.88;;;16.27;50.32
17785;BME280;9016;53.582;10.062;2023-04-24T08:43:39;99932.78;;;16.14;50.10
17785;BME280;9016;53.582;10.062;2023-04-24T08:46:08;99926.50;;;15.86;51.12
17785;BME280;9016;53.582;10.062;2023-04-24T08:48:38;99919.53;;;16.03;52.10
17785;BME280;9016;53.582;10.062;2023-04-24T08:51:09;99921.50;;;16.37;52.01
17785;BME280;9016;53.582;10.062;2023-04-24T08:53:37;99928.69;;;16.73;49.81
17785;BME280;9016;53.582;10.062;2023-04-24T08:56:05;99924.09;;;16.83;49.38
17785;BME280;9016;53.582;10.062;2023-04-24T08:58:35;99921.69;;;16.80;48.93
17785;BME280;9016;53.582;10.062;2023-04-24T09:01:04;99930.06;;;16.60;48.80
17785;BME280;9016;53.582;10.062;2023-04-24T09:03:33;99932.44;;;16.26;50.12
17785;BME280;9016;53.582;10.062;2023-04-24T09:06:02;99920.81;;;16.62;49.73
17785;BME280;9016;53.582;10.062;2023-04-24T09:08:32;99915.03;;;17.20;47.99
17785;BME280;9016;53.582;10.062;2023-04-24T09:11:01;99913.81;;;17.93;46.92
17785;BME280;9016;53.582;10.062;2023-04-24T09:13:30;99927.22;;;18.10;46.72
17785;BME280;9016;53.582;10.062;2023-04-24T09:15:59;99930.16;;;17.73;47.46
17785;BME280;9016;53.582;10.062;2023-04-24T09:18:27;99931.41;;;17.44;47.88
17785;BME280;9016;53.582;10.062;2023-04-24T09:21:03;99944.56;;;16.94;48.61
17785;BME280;9016;53.582;10.062;2023-04-24T09:23:32;99932.72;;;17.05;49.04
17785;BME280;9016;53.582;10.062;2023-04-24T09:26:02;99931.53;;;16.90;48.35
17785;BME280;9016;53.582;10.062;2023-04-24T09:28:32;99941.97;;;16.57;49.36
17785;BME280;9016;53.582;10.062;2023-04-24T09:31:07;99928.59;;;16.29;50.03
17785;BME280;9016;53.582;10.062;2023-04-24T09:33:35;99935.56;;;16.22;50.66
17785;BME280;9016;53.582;10.062;2023-04-24T09:36:04;99937.38;;;16.31;50.96
17785;BME280;9016;53.582;10.062;2023-04-24T09:38:35;99950.34;;;16.54;50.77
17785;BME280;9016;53.582;10.062;2023-04-24T09:41:05;99944.19;;;16.62;50.76
17785;BME280;9016;53.582;10.062;2023-04-24T09:43:34;99937.94;;;16.89;49.85
17785;BME280;9016;53.582;10.062;2023-04-24T09:46:05;99931.00;;;16.86;49.50
17785;BME280;9016;53.582;10.062;2023-04-24T09:48:34;99938.97;;;16.60;49.62
17785;BME280;9016;53.582;10.062;2023-04-24T09:51:04;99943.84;;;16.47;50.33
17785;BME280;9016;53.582;10.062;2023-04-24T09:53:38;99940.81;;;16.60;50.05
17785;BME280;9016;53.582;10.062;2023-04-24T09:56:08;99946.88;;;16.62;50.64
17785;BME280;9016;53.582;10.062;2023-04-24T09:58:37;99945.50;;;16.58;50.11
17785;BME280;9016;53.582;10.062;2023-04-24T10:01:06;99942.09;;;16.19;51.11
17785;BME280;9016;53.582;10.062;2023-04-24T10:03:35;99951.91;;;16.01;51.63
17785;BME280;9016;53.582;10.062;2023-04-24T10:06:04;99950.53;;;15.88;51.88
17785;BME280;9016;53.582;10.062;2023-04-24T10:08:37;99961.22;;;16.07;50.94
17785;BME280;9016;53.582;10.062;2023-04-24T10:11:06;99951.06;;;16.10;50.80
17785;BME280;9016;53.582;10.062;2023-04-24T10:13:35;99956.44;;;16.10;51.10
17785;BME280;9016;53.582;10.062;2023-04-24T10:16:04;99956.53;;;16.18;50.89
17785;BME280;9016;53.582;10.062;2023-04-24T10:18:32;99959.53;;;16.15;51.45
17785;BME280;9016;53.582;10.062;2023-04-24T10:21:01;99951.72;;;16.12;51.43
17785;BME280;9016;53.582;10.062;2023-04-24T10:23:30;99961.69;;;16.02;51.61
17785;BME280;9016;53.582;10.062;2023-04-24T10:26:00;99957.56;;;15.98;51.80
17785;BME280;9016;53.582;10.062;2023-04-24T10:28:31;99962.25;;;15.96;51.52
17785;BME280;9016;53.582;10.062;2023-04-24T10:31:00;99961.81;;;16.01;51.47
17785;BME280;9016;53.582;10.062;2023-04-24T10:33:29;99961.00;;;15.91;52.24
17785;BME280;9016;53.582;10.062;2023-04-24T10:35:58;99958.59;;;15.88;52.34
17785;BME280;9016;53.582;10.062;2023-04-24T10:38:28;99960.41;;;15.97;51.85
17785;BME280;9016;53.582;10.062;2023-04-24T10:41:09;99965.00;;;15.77;52.52
17785;BME280;9016;53.582;10.062;2023-04-24T10:43:42;99960.34;;;15.60;52.70
17785;BME280;9016;53.582;10.062;2023-04-24T10:46:10;99970.34;;;15.39;53.21
17785;BME280;9016;53.582;10.062;2023-04-24T10:48:52;99974.03;;;15.57;52.96
17785;BME280;9016;53.582;10.062;2023-04-24T10:51:22;99970.69;;;15.55;53.71
17785;BME280;9016;53.582;10.062;2023-04-24T10:53:53;99976.31;;;15.52;53.89
17785;BME280;9016;53.582;10.062;2023-04-24T10:56:22;99976.88;;;15.55;54.00
17785;BME280;9016;53.582;10.062;2023-04-24T10:58:51;99965.47;;;15.44;53.91
17785;BME280;9016;53.582;10.062;2023-04-24T11:01:24;99973.63;;;15.42;53.77
17785;BME280;9016;53.582;10.062;2023-04-24T11:03:55;99969.94;;;15.34;53.43
17785;BME280;9016;53.582;10.062;2023-04-24T11:06:31;99963.59;;;15.73;52.45
17785;BME280;9016;53.582;10.062;2023-04-24T11:09:02;99963.66;;;16.37;51.10
17785;BME280;9016;53.582;10.062;2023-04-24T11:11:33;99964.06;;;16.78;50.08
17785;BME280;9016;53.582;10.062;2023-04-24T11:14:06;99960.88;;;16.93;48.66
17785;BME280;9016;53.582;10.062;2023-04-24T11:16:42;99967.03;;;17.20;48.84
17785;BME280;9016;53.582;10.062;2023-04-24T11:19:20;99959.88;;;17.29;48.45
17785;BME280;9016;53.582;10.062;2023-04-24T11:21:54;99957.19;;;17.29;47.81
17785;BME280;9016;53.582;10.062;2023-04-24T11:24:28;99969.19;;;17.17;47.31
17785;BME280;9016;53.582;10.062;2023-04-24T11:27:00;99957.25;;;17.02;47.43
17785;BME280;9016;53.582;10.062;2023-04-24T11:29:41;99961.16;;;16.90;47.41
17785;BME280;9016;53.582;10.062;2023-04-24T11:32:24;99961.88;;;16.64;48.07
17785;BME280;9016;53.582;10.062;2023-04-24T11:34:53;99965.16;;;16.58;48.48
17785;BME280;9016;53.582;10.062;2023-04-24T11:37:22;99960.41;;;16.43;49.09
17785;BME280;9016;53.582;10.062;2023-04-24T11:39:52;99961.94;;;16.45;49.51
17785;BME280;9016;53.582;10.062;2023-04-24T11:42:23;99957.41;;;16.46;49.41
17785;BME280;9016;53.582;10.062;2023-04-24T11:44:52;99973.00;;;16.52;49.70
17785;BME280;9016;53.582;10.062;2023-04-24T11:47:28;99963.13;;;16.70;49.17
17785;BME280;9016;53.582;10.062;2023-04-24T11:49:57;99960.06;;;17.10;48.12
17785;BME280;9016;53.582;10.062;2023-04-24T11:52:29;99956.44;;;17.36;47.74
17785;BME280;9016;53.582;10.062;2023-04-24T11:54:59;99964.81;;;17.33;46.97
17785;BME280;9016;53.582;10.062;2023-04-24T11:57:30;99962.56;;;17.29;46.24
17785;BME280;9016;53.582;10.062;2023-04-24T12:00:01;99964.69;;;17.17;45.60
17785;BME280;9016;53.582;10.062;2023-04-24T12:02:31;99963.03;;;17.07;46.05
17785;BME280;9016;53.582;10.062;2023-04-24T12:04:59;99964.25;;;17.12;45.27
17785;BME280;9016;53.582;10.062;2023-04-24T12:07:28;99962.31;;;17.05;45.53
17785;BME280;9016;53.582;10.062;2023-04-24T12:09:58;99960.72;;;17.12;45.82
17785;BME280;9016;53.582;10.062;2023-04-24T12:12:28;99957.75;;;17.15;45.70
17785;BME280;9016;53.582;10.062;2023-04-24T12:14:58;99963.34;;;17.21;45.46
17785;BME280;9016;53.582;10.062;2023-04-24T12:17:32;99958.59;;;17.15;44.87
17785;BME280;9016;53.582;10.062;2023-04-24T12:20:02;99955.09;;;16.88;44.51
17785;BME280;9016;53.582;10.062;2023-04-24T12:22:43;99947.72;;;17.25;44.68
17785;BME280;9016;53.582;10.062;2023-04-24T12:25:13;99959.19;;;17.27;44.10
17785;BME280;9016;53.582;10.062;2023-04-24T12:27:41;99964.19;;;17.22;45.09
17785;BME280;9016;53.582;10.062;2023-04-24T12:30:14;99958.81;;;17.04;45.31
17785;BME280;9016;53.582;10.062;2023-04-24T12:32:46;99956.81;;;17.24;45.17
17785;BME280;9016;53.582;10.062;2023-04-24T12:35:19;99963.66;;;17.36;44.98
17785;BME280;9016;53.582;10.062;2023-04-24T12:37:48;99976.19;;;17.27;44.74
17785;BME280;9016;53.582;10.062;2023-04-24T12:40:17;99968.13;;;17.27;45.24
17785;BME280;9016;53.582;10.062;2023-04-24T12:42:48;99966.03;;;17.04;45.56
17785;BME280;9016;53.582;10.062;2023-04-24T12:45:19;99976.22;;;16.82;46.03
17785;BME280;9016;53.582;10.062;2023-04-24T12:47:49;99970.50;;;16.68;46.34
17785;BME280;9016;53.582;10.062;2023-04-24T12:50:18;99984.88;;;16.49;47.19
17785;BME280;9016;53.582;10.062;2023-04-24T12:52:46;99978.53;;;16.50;47.49
17785;BME280;9016;53.582;10.062;2023-04-24T12:55:14;99977.50;;;16.42;47.79
17785;BME280;9016;53.582;10.062;2023-04-24T12:57:42;99980.34;;;16.50;47.58
17785;BME280;9016;53.582;10.062;2023-04-24T13:00:10;99983.19;;;16.39;47.70
17785;BME280;9016;53.582;10.062;2023-04-24T13:02:40;99975.75;;;16.23;48.47
17785;BME280;9016;53.582;10.062;2023-04-24T13:05:08;99979.19;;;16.16;48.46
17785;BME280;9016;53.582;10.062;2023-04-24T13:07:40;99984.91;;;15.84;48.94
17785;BME280;9016;53.582;10.062;2023-04-24T13:10:09;99988.22;;;15.49;50.79
17785;BME280;9016;53.582;10.062;2023-04-24T13:12:38;99996.38;;;15.48;52.88